Time;durP1;ratioP1;P1;durP2;ratioP2;P2;SDS_P1;SDS_P2;PMS_P1;PMS_P2;Temp;Humidity;BMP_temperature;BMP_pressure;BME280_temperature;BME280_humidity;BME280_pressure;Samples;Min_cycle;Max_cycle;Signal;HPM_P1;HPM_P2
2020/12/21 00:02:16;;;;;;;35.67;17.13;;;0.50;99.90;;;;;;5051034;28;20055;-77
2020/12/21 00:04:42;;;;;;;36.10;16.85;;;0.50;99.90;;;;;;5051211;28;20392;-76
2020/12/21 00:07:07;;;;;;;32.95;17.30;;;0.50;99.90;;;;;;5051167;28;20095;-76
2020/12/21 00:09:33;;;;;;;34.30;16.17;;;0.50;99.90;;;;;;5051108;28;20053;-76
2020/12/21 00:11:58;;;;;;;35.63;18.02;;;0.60;99.90;;;;;;5034429;28;20057;-77
2020/12/21 00:14:24;;;;;;;35.45;17.77;;;0.50;99.90;;;;;;5051047;28;20022;-76
2020/12/21 00:16:51;;;;;;;33.80;16.63;;;0.50;99.90;;;;;;5034462;28;20022;-76
2020/12/21 00:19:18;;;;;;;36.45;17.13;;;0.60;99.90;;;;;;5035665;28;20037;-76
2020/12/21 00:21:45;;;;;;;37.30;17.42;;;0.60;99.90;;;;;;5035764;28;20473;-77
2020/12/21 00:24:11;;;;;;;40.25;18.20;;;0.60;99.90;;;;;;5035527;28;20034;-77
2020/12/21 00:26:37;;;;;;;32.00;16.63;;;0.60;99.90;;;;;;5050751;28;20036;-76
2020/12/21 00:29:04;;;;;;;36.38;17.17;;;0.60;99.90;;;;;;5050818;28;20108;-76
2020/12/21 00:31:31;;;;;;;36.72;17.83;;;0.60;99.90;;;;;;5050756;28;20034;-75
2020/12/21 00:33:58;;;;;;;36.25;17.23;;;0.60;99.90;;;;;;5036230;28;20029;-76
2020/12/21 00:36:24;;;;;;;36.00;18.35;;;0.60;99.90;;;;;;5035373;28;20033;-76
2020/12/21 00:38:51;;;;;;;36.13;17.95;;;0.60;99.90;;;;;;5050637;28;20483;-76
2020/12/21 00:41:18;;;;;;;33.90;17.65;;;0.70;99.90;;;;;;5035241;28;20164;-76
2020/12/21 00:43:47;;;;;;;32.28;16.13;;;0.70;99.90;;;;;;5050507;28;20022;-76
2020/12/21 00:46:18;;;;;;;30.90;16.05;;;0.70;99.90;;;;;;5035075;28;20030;-75
2020/12/21 00:48:44;;;;;;;34.13;16.52;;;0.70;99.90;;;;;;5050421;28;20026;-76
2020/12/21 00:51:11;;;;;;;33.85;17.15;;;0.70;99.90;;;;;;5050288;28;20032;-76
2020/12/21 00:53:37;;;;;;;35.75;18.10;;;0.80;99.90;;;;;;5050543;28;20049;-76
2020/12/21 00:56:04;;;;;;;33.55;16.95;;;0.90;99.90;;;;;;5050544;28;20056;-76
2020/12/21 00:58:34;;;;;;;32.17;17.73;;;0.90;99.90;;;;;;5034706;28;20032;-76
2020/12/21 01:01:00;;;;;;;34.30;16.80;;;0.90;99.90;;;;;;5034947;28;20381;-76
2020/12/21 01:03:26;;;;;;;34.80;18.35;;;0.90;99.90;;;;;;5034791;28;20052;-76
2020/12/21 01:05:55;;;;;;;36.65;18.60;;;0.90;99.90;;;;;;5034658;28;20033;-76
2020/12/21 01:08:21;;;;;;;36.50;17.85;;;0.90;99.90;;;;;;5034929;28;20030;-77
2020/12/21 01:10:46;;;;;;;39.00;18.98;;;0.90;99.90;;;;;;5034772;28;20028;-76
2020/12/21 01:13:12;;;;;;;35.30;17.45;;;0.90;99.90;;;;;;5049890;28;20032;-76
2020/12/21 01:15:37;;;;;;;33.60;16.90;;;0.90;99.90;;;;;;5034467;28;20101;-76
2020/12/21 01:18:03;;;;;;;34.25;17.13;;;0.90;99.90;;;;;;5049759;28;20030;-76
2020/12/21 01:20:29;;;;;;;33.35;16.63;;;0.90;99.90;;;;;;5034827;28;20026;-76
2020/12/21 01:22:54;;;;;;;34.85;16.42;;;0.90;99.90;;;;;;5034473;28;20117;-75
2020/12/21 01:25:20;;;;;;;34.00;17.83;;;0.90;99.90;;;;;;5034560;28;20435;-76
2020/12/21 01:27:45;;;;;;;33.47;17.63;;;0.90;99.90;;;;;;5049737;28;20373;-76
2020/12/21 01:30:11;;;;;;;33.30;16.23;;;0.90;99.90;;;;;;5034314;28;20021;-76
2020/12/21 01:32:36;;;;;;;35.97;18.27;;;0.90;99.90;;;;;;5034137;28;20049;-76
2020/12/21 01:35:02;;;;;;;35.50;18.27;;;0.90;99.90;;;;;;5049444;28;20143;-76
2020/12/21 01:37:28;;;;;;;38.35;19.27;;;0.90;99.90;;;;;;5049462;28;20128;-77
2020/12/21 01:39:54;;;;;;;34.53;17.85;;;0.90;99.90;;;;;;5034160;28;20100;-76
2020/12/21 01:42:19;;;;;;;37.97;18.50;;;0.90;99.90;;;;;;5033972;28;20030;-76
2020/12/21 01:44:47;;;;;;;37.28;18.80;;;0.90;99.90;;;;;;5034083;28;20025;-77
2020/12/21 01:47:13;;;;;;;34.33;18.20;;;0.90;99.90;;;;;;5049403;28;20041;-76
2020/12/21 01:49:39;;;;;;;36.47;18.67;;;0.90;99.90;;;;;;5033933;28;20034;-76
2020/12/21 01:52:06;;;;;;;33.15;17.25;;;0.90;99.90;;;;;;5034058;28;20021;-77
2020/12/21 01:54:32;;;;;;;39.60;19.33;;;1.00;99.90;;;;;;5033861;28;20075;-76
2020/12/21 01:56:58;;;;;;;38.55;18.55;;;0.90;99.90;;;;;;5033832;28;20108;-76
2020/12/21 01:59:24;;;;;;;40.70;19.58;;;0.90;99.90;;;;;;5048990;28;20063;-77
2020/12/21 02:01:51;;;;;;;38.03;19.48;;;0.90;99.90;;;;;;5048908;28;20558;-77
2020/12/21 02:04:17;;;;;;;44.80;19.63;;;0.90;99.90;;;;;;5049522;28;20026;-76
2020/12/21 02:06:42;;;;;;;37.83;19.70;;;0.90;99.90;;;;;;5033795;28;20083;-76
2020/12/21 02:09:08;;;;;;;43.88;20.30;;;0.90;99.90;;;;;;5032755;28;20021;-76
2020/12/21 02:11:38;;;;;;;38.58;18.88;;;0.90;99.90;;;;;;5048879;28;20554;-76
2020/12/21 02:14:03;;;;;;;34.05;17.00;;;0.80;99.90;;;;;;5048959;28;20025;-77
2020/12/21 02:16:29;;;;;;;33.10;17.25;;;0.80;99.90;;;;;;5033335;28;20401;-76
2020/12/21 02:18:54;;;;;;;39.88;19.15;;;0.90;99.90;;;;;;5048678;28;20631;-76
2020/12/21 02:21:20;;;;;;;39.78;18.75;;;0.90;99.90;;;;;;5033319;28;20396;-76
2020/12/21 02:23:46;;;;;;;40.47;19.50;;;0.90;99.90;;;;;;5033507;28;20397;-76
2020/12/21 02:26:11;;;;;;;38.03;17.90;;;0.90;99.90;;;;;;5041358;28;20026;-76
2020/12/21 02:28:37;;;;;;;33.53;18.00;;;1.00;99.90;;;;;;5044259;28;20034;-76
2020/12/21 02:31:02;;;;;;;39.50;18.60;;;1.00;99.90;;;;;;5043949;28;20025;-75
2020/12/21 02:33:28;;;;;;;35.95;18.23;;;1.00;99.90;;;;;;5039741;28;20041;-76
2020/12/21 02:35:53;;;;;;;37.97;18.85;;;1.10;99.90;;;;;;5051376;28;20025;-76
2020/12/21 02:38:19;;;;;;;33.17;17.30;;;1.10;99.90;;;;;;5035021;28;20106;-76
2020/12/21 02:40:45;;;;;;;39.60;19.00;;;1.10;99.90;;;;;;5049123;28;20387;-76
2020/12/21 02:43:10;;;;;;;38.10;18.10;;;1.10;99.90;;;;;;5048549;28;20076;-76
2020/12/21 02:45:36;;;;;;;37.75;18.13;;;1.10;99.90;;;;;;5033456;28;20021;-76
2020/12/21 02:48:01;;;;;;;37.78;19.00;;;1.10;99.90;;;;;;5033137;28;20026;-76
2020/12/21 02:50:27;;;;;;;37.80;19.33;;;1.10;99.90;;;;;;5033378;28;20104;-76
2020/12/21 02:52:52;;;;;;;34.85;17.48;;;1.10;99.90;;;;;;5032954;28;20026;-76
2020/12/21 02:55:18;;;;;;;39.75;18.17;;;1.10;99.90;;;;;;5032974;28;20044;-77
2020/12/21 02:57:43;;;;;;;35.65;17.85;;;1.20;99.90;;;;;;5048392;28;20465;-77
2020/12/21 03:00:09;;;;;;;39.42;19.98;;;1.20;99.90;;;;;;5032921;28;20033;-77
2020/12/21 03:02:35;;;;;;;34.83;16.67;;;1.20;99.90;;;;;;5048362;28;20029;-77
2020/12/21 03:05:01;;;;;;;34.33;17.75;;;1.10;99.90;;;;;;5032550;28;20029;-76
2020/12/21 03:07:26;;;;;;;34.67;18.00;;;1.20;99.90;;;;;;5033044;28;20388;-77
2020/12/21 03:09:52;;;;;;;36.97;18.90;;;1.30;99.90;;;;;;5048153;28;20476;-77
2020/12/21 03:12:17;;;;;;;33.55;18.15;;;1.30;99.90;;;;;;5048083;28;20503;-77
2020/12/21 03:14:43;;;;;;;34.45;18.60;;;1.30;99.90;;;;;;5032760;28;20396;-77
2020/12/21 03:17:08;;;;;;;37.80;18.17;;;1.40;99.90;;;;;;5031488;28;20477;-76
2020/12/21 03:19:34;;;;;;;32.58;18.13;;;1.40;99.90;;;;;;5032668;28;20445;-76
2020/12/21 03:21:59;;;;;;;34.60;17.58;;;1.40;99.90;;;;;;5051470;28;20048;-77
2020/12/21 03:24:25;;;;;;;35.10;17.85;;;1.40;99.90;;;;;;5036730;28;20439;-77
2020/12/21 03:26:50;;;;;;;36.35;17.30;;;1.50;99.90;;;;;;5037185;28;20495;-77
2020/12/21 03:29:17;;;;;;;36.78;18.08;;;1.40;99.90;;;;;;5052124;28;20029;-77
2020/12/21 03:31:43;;;;;;;35.25;18.30;;;1.40;99.90;;;;;;5036550;28;20026;-77
2020/12/21 03:34:13;;;;;;;39.95;19.10;;;1.40;99.90;;;;;;5061652;22;20045;-77
2020/12/21 03:36:39;;;;;;;36.83;17.90;;;1.40;99.90;;;;;;5035320;28;20021;-77
2020/12/21 03:39:05;;;;;;;38.85;19.83;;;1.40;99.90;;;;;;5051834;28;20025;-76
2020/12/21 03:41:31;;;;;;;39.90;19.02;;;1.40;99.90;;;;;;5037167;28;20516;-77
2020/12/21 03:43:56;;;;;;;39.92;19.30;;;1.40;99.90;;;;;;5041244;28;20075;-76
2020/12/21 03:46:22;;;;;;;41.58;20.20;;;1.40;99.90;;;;;;5042279;28;20045;-76
2020/12/21 03:48:47;;;;;;;39.58;20.65;;;1.50;99.90;;;;;;5056771;28;20021;-76
2020/12/21 03:51:13;;;;;;;44.90;21.00;;;1.50;99.90;;;;;;5056149;28;20030;-76
2020/12/21 03:53:39;;;;;;;45.22;21.70;;;1.50;99.90;;;;;;5041209;28;20040;-76
2020/12/21 03:56:04;;;;;;;46.67;20.65;;;1.50;99.90;;;;;;5052410;28;20413;-76
2020/12/21 03:58:30;;;;;;;43.38;21.40;;;1.50;99.90;;;;;;5036152;28;20021;-75
2020/12/21 04:00:55;;;;;;;46.33;22.60;;;1.50;99.90;;;;;;5036181;28;20470;-76
2020/12/21 04:03:21;;;;;;;48.20;21.58;;;1.40;99.90;;;;;;5051373;28;20511;-76
2020/12/21 04:05:46;;;;;;;45.53;21.70;;;1.40;99.90;;;;;;5036000;28;20117;-76
2020/12/21 04:08:12;;;;;;;44.08;20.88;;;1.40;99.90;;;;;;5036332;28;20056;-76
2020/12/21 04:10:38;;;;;;;40.63;19.50;;;1.40;99.90;;;;;;5034862;28;20025;-76
2020/12/21 04:13:04;;;;;;;40.25;19.10;;;1.40;99.90;;;;;;5051292;28;20025;-76
2020/12/21 04:15:29;;;;;;;42.00;19.92;;;1.50;99.90;;;;;;5051017;28;20400;-76
2020/12/21 04:17:55;;;;;;;43.17;20.30;;;1.40;99.90;;;;;;5036001;28;20100;-76
2020/12/21 04:20:20;;;;;;;38.80;19.42;;;1.40;99.90;;;;;;5035964;28;20029;-76
2020/12/21 04:22:46;;;;;;;39.45;19.27;;;1.40;99.90;;;;;;5035734;28;20034;-76
2020/12/21 04:25:11;;;;;;;40.83;21.25;;;1.40;99.90;;;;;;5034312;28;20030;-76
2020/12/21 04:27:37;;;;;;;41.25;20.13;;;1.40;99.90;;;;;;5035441;28;20025;-76
2020/12/21 04:30:04;;;;;;;38.53;19.48;;;1.50;99.90;;;;;;5035582;28;20111;-76
2020/12/21 04:32:29;;;;;;;38.15;18.48;;;1.50;99.90;;;;;;5034954;28;20025;-76
2020/12/21 04:34:55;;;;;;;43.42;19.80;;;1.50;99.90;;;;;;5035326;28;20025;-76
2020/12/21 04:37:20;;;;;;;44.05;20.15;;;1.40;99.90;;;;;;5034081;28;20108;-76
2020/12/21 04:39:46;;;;;;;45.05;20.02;;;1.40;99.90;;;;;;5035332;28;20053;-76
2020/12/21 04:42:11;;;;;;;41.38;19.50;;;1.40;99.90;;;;;;5050558;28;20030;-76
2020/12/21 04:44:38;;;;;;;45.47;20.40;;;1.40;99.90;;;;;;5050546;28;20460;-76
2020/12/21 04:47:05;;;;;;;41.38;20.23;;;1.40;99.90;;;;;;5050471;28;20072;-76
2020/12/21 04:49:33;;;;;;;41.15;19.92;;;1.50;99.90;;;;;;5050611;28;20025;-76
2020/12/21 04:52:04;;;;;;;43.67;19.65;;;1.50;99.90;;;;;;5050642;28;20032;-76
2020/12/21 04:54:29;;;;;;;42.05;21.15;;;1.50;99.90;;;;;;5050291;28;20060;-76
2020/12/21 04:56:58;;;;;;;39.70;20.83;;;1.50;99.90;;;;;;5035162;28;20405;-76
2020/12/21 04:59:24;;;;;;;41.53;19.85;;;1.50;99.90;;;;;;5035081;28;20033;-76
2020/12/21 05:01:49;;;;;;;41.08;20.02;;;1.60;99.90;;;;;;5033696;28;20357;-76
2020/12/21 05:04:15;;;;;;;43.60;19.25;;;1.60;99.90;;;;;;5035140;28;20400;-76
2020/12/21 05:06:53;;;;;;;41.38;19.83;;;1.60;99.90;;;;;;5034858;28;20034;-76
2020/12/21 05:09:24;;;;;;;45.10;20.75;;;1.60;99.90;;;;;;5035004;28;20029;-76
2020/12/21 05:12:05;;;;;;;44.80;20.50;;;1.60;99.90;;;;;;5050299;28;20029;-76
2020/12/21 05:14:35;;;;;;;39.55;19.10;;;1.60;99.90;;;;;;5034832;28;20028;-76
2020/12/21 05:17:12;;;;;;;46.15;21.05;;;1.70;99.90;;;;;;5049977;28;20025;-75
2020/12/21 05:19:38;;;;;;;37.97;19.67;;;1.60;99.90;;;;;;5034475;28;20438;-76
2020/12/21 05:22:15;;;;;;;39.75;19.80;;;1.60;99.90;;;;;;5034863;28;20496;-76
2020/12/21 05:24:41;;;;;;;44.42;20.15;;;1.60;99.90;;;;;;5034642;28;20029;-76
2020/12/21 05:27:14;;;;;;;38.88;20.15;;;1.60;99.90;;;;;;5034516;28;20049;-76
2020/12/21 05:29:40;;;;;;;40.38;20.30;;;1.50;99.90;;;;;;5034698;28;20595;-76
2020/12/21 05:32:10;;;;;;;47.42;21.83;;;1.60;99.90;;;;;;5050039;28;20151;-76
2020/12/21 05:34:36;;;;;;;41.80;20.25;;;1.50;99.90;;;;;;5049693;28;20079;-76
2020/12/21 05:37:12;;;;;;;42.80;21.08;;;1.50;99.90;;;;;;5033270;28;20073;-76
2020/12/21 05:39:48;;;;;;;41.17;20.45;;;1.50;99.90;;;;;;5034738;28;20021;-76
2020/12/21 05:42:13;;;;;;;44.47;21.10;;;1.50;99.90;;;;;;5034500;28;20029;-76
2020/12/21 05:44:50;;;;;;;40.70;20.10;;;1.60;99.90;;;;;;5049602;28;20029;-76
2020/12/21 05:47:16;;;;;;;42.88;21.00;;;1.60;99.90;;;;;;5049910;28;20033;-76
2020/12/21 05:49:50;;;;;;;37.20;19.63;;;1.60;99.90;;;;;;5049726;28;20040;-76
2020/12/21 05:52:29;;;;;;;41.20;21.42;;;1.70;99.90;;;;;;5034491;28;20437;-76
2020/12/21 05:54:56;;;;;;;40.15;19.65;;;1.60;99.90;;;;;;5033571;28;20056;-76
2020/12/21 05:57:26;;;;;;;44.65;21.60;;;1.70;99.90;;;;;;5035061;28;20040;-76
2020/12/21 05:59:53;;;;;;;41.83;20.70;;;1.70;99.90;;;;;;5053210;28;20033;-76
2020/12/21 06:02:19;;;;;;;40.35;19.75;;;1.70;99.90;;;;;;5036589;28;20048;-76
2020/12/21 06:04:49;;;;;;;51.50;22.83;;;1.60;99.90;;;;;;5036363;28;20022;-75
2020/12/21 06:07:21;;;;;;;43.13;20.42;;;1.60;99.90;;;;;;5036377;28;20384;-76
2020/12/21 06:09:50;;;;;;;42.92;19.55;;;1.60;99.90;;;;;;5034844;28;20204;-76
2020/12/21 06:12:21;;;;;;;42.63;20.85;;;1.60;99.90;;;;;;5033444;28;20466;-77
2020/12/21 06:14:54;;;;;;;52.42;22.90;;;1.60;99.90;;;;;;5034805;28;20026;-76
2020/12/21 06:17:20;;;;;;;;;;;1.60;99.90;;;;;;5034859;28;20100;-76
2020/12/21 06:19:45;;;;;;;46.55;21.77;;;1.60;99.90;;;;;;5033633;28;19948;-76
2020/12/21 06:22:11;;;;;;;44.45;21.35;;;1.70;99.90;;;;;;5049407;28;20025;-76
2020/12/21 06:24:39;;;;;;;43.33;20.38;;;1.70;99.90;;;;;;5034468;28;20052;-76
2020/12/21 06:27:13;;;;;;;49.72;22.48;;;1.70;99.90;;;;;;5034758;28;20028;-76
2020/12/21 06:29:39;;;;;;;43.72;20.85;;;1.80;99.90;;;;;;5034425;28;20167;-76
2020/12/21 06:32:06;;;;;;;44.53;23.50;;;1.80;99.90;;;;;;5049042;28;20025;-76
2020/12/21 06:34:34;;;;;;;41.45;21.80;;;1.80;99.90;;;;;;5035662;28;20041;-76
2020/12/21 06:37:05;;;;;;;53.88;23.63;;;1.80;99.90;;;;;;5037174;28;20057;-76
2020/12/21 06:39:32;;;;;;;51.42;23.73;;;1.80;99.90;;;;;;5039264;28;20028;-76
2020/12/21 06:42:11;;;;;;;52.97;25.17;;;1.80;99.90;;;;;;5038201;28;20029;-76
2020/12/21 06:44:39;;;;;;;42.45;22.35;;;1.90;99.90;;;;;;5035368;28;20105;-76
2020/12/21 06:47:05;;;;;;;63.80;28.42;;;1.90;99.90;;;;;;5034223;28;20022;-76
2020/12/21 06:49:31;;;;;;;49.42;23.65;;;1.90;99.90;;;;;;5049806;28;20026;-76
2020/12/21 06:51:57;;;;;;;43.13;22.05;;;1.90;99.90;;;;;;5049816;28;20075;-76
2020/12/21 06:54:23;;;;;;;44.72;21.95;;;1.90;99.90;;;;;;5049476;28;20064;-76
2020/12/21 06:56:49;;;;;;;47.58;21.10;;;1.90;99.90;;;;;;5048649;28;20030;-76
2020/12/21 06:59:26;;;;;;;44.15;21.70;;;1.90;99.90;;;;;;5048649;28;20400;-76
2020/12/21 07:01:53;;;;;;;44.08;21.67;;;1.90;99.90;;;;;;5049244;28;20068;-76
2020/12/21 07:04:30;;;;;;;40.83;21.08;;;2.00;99.90;;;;;;5048571;28;20168;-76
2020/12/21 07:06:56;;;;;;;43.58;21.73;;;1.90;99.90;;;;;;5048662;28;20034;-76
2020/12/21 07:09:27;;;;;;;40.80;19.77;;;2.00;99.90;;;;;;5033188;28;20030;-76
2020/12/21 07:11:58;;;;;;;38.88;19.98;;;2.00;99.90;;;;;;5033700;28;20026;-76
2020/12/21 07:14:25;;;;;;;38.88;19.35;;;2.00;99.90;;;;;;5048907;28;20022;-76
2020/12/21 07:17:05;;;;;;;38.20;19.58;;;2.00;99.90;;;;;;5049060;28;20496;-76
2020/12/21 07:19:39;;;;;;;36.63;20.27;;;2.00;99.90;;;;;;5048986;28;20034;-76
2020/12/21 07:22:06;;;;;;;36.05;18.98;;;2.00;99.90;;;;;;5033200;28;20025;-76
2020/12/21 07:24:32;;;;;;;35.75;18.50;;;2.00;99.90;;;;;;5033070;28;20037;-76
2020/12/21 07:26:58;;;;;;;34.20;17.60;;;2.10;99.90;;;;;;5048278;28;20025;-76
2020/12/21 07:29:31;;;;;;;36.90;18.80;;;2.10;99.90;;;;;;5048410;28;20498;-77
2020/12/21 07:31:56;;;;;;;36.13;18.73;;;2.10;99.90;;;;;;5048616;28;20501;-77
2020/12/21 07:34:22;;;;;;;37.63;20.75;;;2.10;99.90;;;;;;5031573;28;20046;-77
2020/12/21 07:36:47;;;;;;;33.30;18.63;;;2.10;99.90;;;;;;5032748;28;20489;-77
2020/12/21 07:39:17;;;;;;;36.75;19.67;;;2.10;99.90;;;;;;5033134;28;20037;-77
2020/12/21 07:41:51;;;;;;;32.10;17.25;;;2.20;99.90;;;;;;5033060;28;20029;-77
2020/12/21 07:44:21;;;;;;;34.00;17.73;;;2.20;99.90;;;;;;5047983;28;20441;-76
2020/12/21 07:47:10;;;;;;;30.75;17.10;;;2.20;99.90;;;;;;5032974;28;20021;-77
2020/12/21 07:49:37;;;;;;;32.55;16.63;;;2.20;99.90;;;;;;5033281;28;20013;-77
2020/12/21 07:52:07;;;;;;;29.25;16.02;;;2.20;99.90;;;;;;5033166;28;20427;-77
2020/12/21 07:54:42;;;;;;;37.50;18.15;;;2.30;99.90;;;;;;5048223;28;20544;-76
2020/12/21 07:57:09;;;;;;;31.70;17.20;;;2.40;99.90;;;;;;5033128;28;20025;-77
2020/12/21 07:59:34;;;;;;;29.65;16.70;;;2.30;99.90;;;;;;5048601;28;20032;-77
2020/12/21 08:02:07;;;;;;;29.67;15.60;;;2.40;99.90;;;;;;5032982;28;20025;-77
2020/12/21 08:04:34;;;;;;;31.73;16.52;;;2.40;99.90;;;;;;5032667;28;20029;-77
2020/12/21 08:07:06;;;;;;;31.40;16.17;;;2.50;99.90;;;;;;5048434;28;20164;-77
2020/12/21 08:09:32;;;;;;;31.95;17.55;;;2.50;99.90;;;;;;5036402;28;20037;-77
2020/12/21 08:11:59;;;;;;;34.20;17.40;;;2.50;99.90;;;;;;5036440;28;20423;-77
2020/12/21 08:14:24;;;;;;;36.15;17.83;;;2.50;99.90;;;;;;5051620;28;20032;-77
2020/12/21 08:16:50;;;;;;;37.20;19.33;;;2.50;99.90;;;;;;5052235;28;20030;-77
2020/12/21 08:19:21;;;;;;;35.95;19.52;;;2.60;99.90;;;;;;5036413;28;20534;-77
2020/12/21 08:21:50;;;;;;;35.42;17.88;;;2.60;99.90;;;;;;5036579;28;20021;-77
2020/12/21 08:24:16;;;;;;;32.05;18.02;;;2.60;99.90;;;;;;5051175;28;20079;-77
2020/12/21 08:26:42;;;;;;;31.98;17.40;;;2.70;99.90;;;;;;5051278;28;20132;-77
2020/12/21 08:29:17;;;;;;;32.45;18.67;;;2.70;99.90;;;;;;5036450;28;20496;-77
2020/12/21 08:31:44;;;;;;;39.00;18.17;;;2.80;99.90;;;;;;5051215;28;20031;-77
2020/12/21 08:34:14;;;;;;;32.28;18.30;;;2.80;99.90;;;;;;5035420;28;20582;-77
2020/12/21 08:36:40;;;;;;;35.35;18.42;;;2.90;99.90;;;;;;5034361;28;20040;-77
2020/12/21 08:39:18;;;;;;;30.27;17.70;;;3.00;99.90;;;;;;5034402;28;20120;-77
2020/12/21 08:41:46;;;;;;;30.85;17.38;;;3.10;99.90;;;;;;5035873;28;20026;-77
2020/12/21 08:44:17;;;;;;;31.73;17.63;;;3.10;99.90;;;;;;5051022;28;20404;-77
2020/12/21 08:47:00;;;;;;;36.20;18.98;;;3.20;99.90;;;;;;5050944;28;20030;-77
2020/12/21 08:49:29;;;;;;;31.73;17.73;;;3.30;99.90;;;;;;5050956;28;20071;-77
2020/12/21 08:52:05;;;;;;;35.17;18.85;;;3.40;99.90;;;;;;5050939;28;20051;-77
2020/12/21 08:54:31;;;;;;;32.20;17.70;;;3.40;99.90;;;;;;5050600;28;20033;-76
2020/12/21 08:56:59;;;;;;;36.15;17.95;;;3.40;99.90;;;;;;5051149;28;20029;-77
2020/12/21 08:59:28;;;;;;;34.47;18.67;;;3.40;99.90;;;;;;5052616;28;20021;-77
2020/12/21 09:02:00;;;;;;;37.20;18.40;;;3.50;99.90;;;;;;5050582;28;20127;-77
2020/12/21 09:04:25;;;;;;;34.30;18.40;;;3.60;99.90;;;;;;5050870;28;20028;-77
2020/12/21 09:06:51;;;;;;;33.67;17.95;;;3.80;99.90;;;;;;5035329;28;20029;-76
2020/12/21 09:09:16;;;;;;;31.05;17.92;;;3.90;99.90;;;;;;5035118;28;20389;-76
2020/12/21 09:11:42;;;;;;;36.17;18.92;;;4.10;99.90;;;;;;5034984;28;20037;-76
2020/12/21 09:14:07;;;;;;;32.17;17.90;;;4.20;99.90;;;;;;5033684;28;20031;-77
2020/12/21 09:16:33;;;;;;;33.15;17.70;;;4.30;99.90;;;;;;5050211;28;20044;-76
2020/12/21 09:18:59;;;;;;;29.23;17.73;;;4.50;99.90;;;;;;5033378;28;20025;-76
2020/12/21 09:21:30;;;;;;;29.23;16.67;;;4.90;99.90;;;;;;5035130;28;20022;-76
2020/12/21 09:24:00;;;;;;;28.40;16.85;;;5.20;99.90;;;;;;5050081;28;20396;-76
2020/12/21 09:26:26;;;;;;;31.42;17.52;;;5.80;99.90;;;;;;5049931;28;20033;-76
2020/12/21 09:28:53;;;;;;;29.17;15.93;;;5.90;99.90;;;;;;5050010;28;20485;-76
2020/12/21 09:31:20;;;;;;;31.23;15.77;;;6.10;99.90;;;;;;5034629;28;20025;-76
2020/12/21 09:33:50;;;;;;;28.02;17.05;;;6.70;99.90;;;;;;5074145;22;20116;-77
2020/12/21 09:36:17;;;;;;;27.00;16.65;;;7.20;99.90;;;;;;5034449;28;20025;-77
2020/12/21 09:38:44;;;;;;;23.98;15.05;;;7.20;99.90;;;;;;5049854;28;20076;-77
2020/12/21 09:41:16;;;;;;;27.88;16.02;;;7.20;99.90;;;;;;5049938;28;20033;-76
2020/12/21 09:43:43;;;;;;;28.25;15.93;;;7.40;99.90;;;;;;5033164;28;20167;-76
2020/12/21 09:46:09;;;;;;;25.75;15.20;;;7.90;99.90;;;;;;5034453;28;20485;-76
2020/12/21 09:48:36;;;;;;;24.45;14.90;;;8.70;99.90;;;;;;5049598;28;20037;-76
2020/12/21 09:51:01;;;;;;;24.38;15.32;;;10.40;99.90;;;;;;5049661;28;20031;-76
2020/12/21 09:53:27;;;;;;;22.00;14.57;;;11.80;99.90;;;;;;5034259;28;20108;-77
2020/12/21 09:55:52;;;;;;;22.23;15.20;;;13.10;99.90;;;;;;5034260;28;20100;-77
2020/12/21 09:58:18;;;;;;;24.30;15.65;;;13.80;94.70;;;;;;5049570;28;20052;-77
2020/12/21 10:00:43;;;;;;;21.63;14.18;;;13.10;89.70;;;;;;5033893;28;20025;-77
2020/12/21 10:03:09;;;;;;;23.92;15.73;;;13.80;90.50;;;;;;5034145;28;20072;-77
2020/12/21 10:05:34;;;;;;;21.88;15.25;;;14.10;84.40;;;;;;5033955;28;20100;-76
2020/12/21 10:08:00;;;;;;;22.98;14.88;;;13.60;86.30;;;;;;5034065;28;20028;-76
2020/12/21 10:10:26;;;;;;;22.67;14.90;;;13.90;84.60;;;;;;5049580;28;20464;-77
2020/12/21 10:12:51;;;;;;;21.02;15.10;;;14.00;84.10;;;;;;5049131;28;20480;-76
2020/12/21 10:15:17;;;;;;;22.80;15.48;;;13.90;81.80;;;;;;5033825;28;20036;-77
2020/12/21 10:17:43;;;;;;;24.17;15.63;;;13.30;83.70;;;;;;5033804;28;20063;-76
2020/12/21 10:20:08;;;;;;;25.45;17.00;;;12.70;86.70;;;;;;5033789;28;20026;-77
2020/12/21 10:22:34;;;;;;;23.50;15.68;;;11.70;90.80;;;;;;5049381;28;20396;-77
2020/12/21 10:24:59;;;;;;;22.23;14.82;;;10.80;93.20;;;;;;5034175;28;20049;-77
2020/12/21 10:27:25;;;;;;;23.38;15.45;;;10.70;95.80;;;;;;5038236;28;20025;-77
2020/12/21 10:29:51;;;;;;;23.52;15.23;;;10.60;97.70;;;;;;5049650;28;20029;-77
2020/12/21 10:32:17;;;;;;;20.17;14.00;;;10.50;99.00;;;;;;5033621;28;20025;-77
2020/12/21 10:34:42;;;;;;;21.92;14.65;;;10.50;99.90;;;;;;5033592;28;20400;-77
2020/12/21 10:37:08;;;;;;;24.38;15.00;;;10.40;99.90;;;;;;5049065;28;20025;-77
2020/12/21 10:39:34;;;;;;;23.75;15.60;;;10.90;99.90;;;;;;5033662;28;20041;-77
2020/12/21 10:42:03;;;;;;;25.88;16.02;;;11.20;99.00;;;;;;5033382;28;20096;-77
2020/12/21 10:44:29;;;;;;;22.58;15.45;;;11.30;98.20;;;;;;5048613;28;20060;-77
2020/12/21 10:46:57;;;;;;;23.48;15.60;;;11.20;99.30;;;;;;5033394;28;20065;-77
2020/12/21 10:49:23;;;;;;;23.23;15.18;;;11.10;98.80;;;;;;5032789;28;20025;-77
2020/12/21 10:51:49;;;;;;;23.40;15.27;;;11.20;99.90;;;;;;5048702;28;20397;-76
2020/12/21 10:54:14;;;;;;;24.23;15.88;;;11.50;98.70;;;;;;5048553;28;20136;-76
2020/12/21 10:56:40;;;;;;;23.20;14.40;;;11.60;97.30;;;;;;5048577;28;20127;-77
2020/12/21 10:59:05;;;;;;;23.80;15.70;;;12.20;96.30;;;;;;5033338;28;20519;-77
2020/12/21 11:01:31;;;;;;;22.88;15.82;;;13.00;93.60;;;;;;5048916;28;20404;-76
2020/12/21 11:03:56;;;;;;;27.02;18.10;;;13.50;90.60;;;;;;5033058;28;20036;-76
2020/12/21 11:06:23;;;;;;;33.55;18.95;;;14.30;86.50;;;;;;5033065;28;20025;-76
2020/12/21 11:08:50;;;;;;;26.35;17.75;;;14.90;82.00;;;;;;5032573;28;20053;-76
2020/12/21 11:11:27;;;;;;;25.95;17.58;;;15.00;78.10;;;;;;5033007;28;20472;-77
2020/12/21 11:13:54;;;;;;;32.60;23.42;;;15.20;76.80;;;;;;5032957;28;20503;-77
2020/12/21 11:16:20;;;;;;;26.73;17.40;;;14.80;75.70;;;;;;5031624;28;20029;-76
2020/12/21 11:18:47;;;;;;;28.02;18.27;;;14.50;76.80;;;;;;5031792;28;20559;-76
2020/12/21 11:21:13;;;;;;;26.48;17.45;;;13.90;78.50;;;;;;5048333;28;20029;-76
2020/12/21 11:23:39;;;;;;;27.33;18.00;;;13.30;82.60;;;;;;5047976;28;20029;-76
2020/12/21 11:26:05;;;;;;;29.92;19.80;;;13.30;83.20;;;;;;5048108;28;20439;-76
2020/12/21 11:28:30;;;;;;;31.67;21.42;;;13.10;83.40;;;;;;5031604;28;20026;-77
2020/12/21 11:30:56;;;;;;;28.40;19.58;;;13.00;85.90;;;;;;5048099;28;20022;-76
2020/12/21 11:33:21;;;;;;;29.17;18.65;;;13.00;86.50;;;;;;5048730;28;20117;-76
2020/12/21 11:35:47;;;;;;;30.33;20.15;;;13.00;87.80;;;;;;5048080;28;20056;-76
2020/12/21 11:38:15;;;;;;;29.58;20.50;;;12.60;87.30;;;;;;5047958;28;20029;-76
2020/12/21 11:40:41;;;;;;;29.60;20.42;;;11.90;90.00;;;;;;5048029;28;20029;-76
2020/12/21 11:43:07;;;;;;;34.03;20.80;;;11.40;92.50;;;;;;5036184;28;20021;-76
2020/12/21 11:45:32;;;;;;;33.65;20.55;;;10.90;94.00;;;;;;5051803;28;20435;-76
2020/12/21 11:47:58;;;;;;;32.53;19.77;;;10.60;96.60;;;;;;5036723;28;20033;-76
2020/12/21 11:50:23;;;;;;;34.42;21.58;;;10.50;98.30;;;;;;5051727;28;20021;-76
2020/12/21 11:52:49;;;;;;;31.25;21.25;;;10.20;99.90;;;;;;5035304;28;20032;-77
2020/12/21 11:55:14;;;;;;;34.22;20.95;;;10.30;99.90;;;;;;5052086;28;20108;-76
2020/12/21 11:57:40;;;;;;;36.47;21.80;;;9.90;99.90;;;;;;5034974;28;20072;-76
2020/12/21 12:00:05;;;;;;;37.92;22.10;;;9.70;99.90;;;;;;5034918;28;20469;-76
2020/12/21 12:02:31;;;;;;;35.97;21.35;;;9.30;99.90;;;;;;5051558;28;20026;-76
2020/12/21 12:04:56;;;;;;;33.28;19.75;;;9.20;99.90;;;;;;5036355;28;20022;-76
2020/12/21 12:07:22;;;;;;;30.92;19.13;;;8.90;99.90;;;;;;5036217;28;20033;-76
2020/12/21 12:09:47;;;;;;;36.22;21.35;;;8.50;99.90;;;;;;5051411;28;20018;-76
2020/12/21 12:12:13;;;;;;;35.67;20.58;;;8.60;99.90;;;;;;5052141;28;20029;-76
2020/12/21 12:14:39;;;;;;;37.58;20.55;;;8.60;99.90;;;;;;5036026;28;20128;-76
2020/12/21 12:17:04;;;;;;;37.83;22.92;;;8.50;99.90;;;;;;5035697;28;20506;-76
2020/12/21 12:19:30;;;;;;;37.05;22.02;;;8.70;99.90;;;;;;5050981;28;20416;-76
2020/12/21 12:21:56;;;;;;;36.53;20.92;;;8.50;99.90;;;;;;5035502;28;20026;-76
2020/12/21 12:24:22;;;;;;;35.83;19.95;;;8.50;99.90;;;;;;5051678;28;20033;-77
2020/12/21 12:26:48;;;;;;;37.33;21.55;;;8.50;99.90;;;;;;5035630;28;20556;-76
2020/12/21 12:29:13;;;;;;;39.05;21.85;;;8.20;99.90;;;;;;5050831;28;20060;-76
2020/12/21 12:31:39;;;;;;;35.78;19.45;;;7.80;99.90;;;;;;5051294;28;20052;-76
2020/12/21 12:34:05;;;;;;;37.28;20.75;;;7.90;99.90;;;;;;5053417;28;20484;-76
2020/12/21 12:36:31;;;;;;;36.10;20.73;;;7.90;99.90;;;;;;5058355;28;20037;-76